US-0078 weather

Reid Ranches Airport
Roggen, Colorado, United States

Public forecast

Using degrees Fahrenheit for public forecast. Weather courtesy of forecast.io.

METAR (pilot weather report)

Closest report is Colorado Air and Space Port, 22.4 nm (41.5 km) SSW. Retrieved UTC (0 seconds ago):

TAF (pilot weather forecast)

Forecast is more than 12 hours old.

Closest forecast is Denver International Airport, 22.4 nm (41.5 km) SW. Retrieved 2019/09/16 00:27 UTC (1 day ago):

TAF KDEN 162325Z 1700/1806 10008KT P6SM SCT120 BKN200 FM170200 16006KT P6SM SCT120 BKN200 FM170500 20010KT P6SM FEW120 SCT220 FM171500 25010KT P6SM SCT220 FM171900 25012G20KT P6SM FEW100 SCT200 FM172100 28017G28KT P6SM SCT110 BKN150 FM180100 31010KT P6SM FEW110 SCT150